createdAt,value
2023-02-24T00:02:53.695Z,56.82
2023-02-24T00:05:56.078Z,57.64
2023-02-24T00:08:58.552Z,56.29
2023-02-24T00:12:03.798Z,55.93
2023-02-24T00:15:06.653Z,55.47
2023-02-24T00:18:09.639Z,57.37
2023-02-24T00:21:15.440Z,56.52
2023-02-24T00:24:18.563Z,56.66
2023-02-24T00:27:20.900Z,56.29
2023-02-24T00:30:24.183Z,56.83
2023-02-24T00:33:26.452Z,57.61
2023-02-24T00:36:30.874Z,56.56
2023-02-24T00:39:35.250Z,56.87
2023-02-24T00:42:39.955Z,57.75
2023-02-24T00:45:42.375Z,57.83
2023-02-24T00:48:48.302Z,57.27
2023-02-24T00:51:54.343Z,57.76
2023-02-24T00:54:58.947Z,58.15
2023-02-24T00:58:07.413Z,57.25
2023-02-24T01:01:17.518Z,58.50
2023-02-24T01:04:20.245Z,58.57
2023-02-24T01:07:22.852Z,58.64
2023-02-24T01:10:27.077Z,59.92
2023-02-24T01:13:30.175Z,59.23
2023-02-24T01:16:34.443Z,58.72
2023-02-24T01:19:36.979Z,59.50
2023-02-24T01:22:39.878Z,60.88
2023-02-24T01:25:47.362Z,61.41
2023-02-24T01:28:49.897Z,61.11
2023-02-24T01:31:58.067Z,61.12
2023-02-24T01:35:01.324Z,61.78
2023-02-24T01:38:04.956Z,62.44
2023-02-24T01:41:07.637Z,62.56
2023-02-24T01:44:14.164Z,62.66
2023-02-24T01:47:21.008Z,62.68
2023-02-24T01:50:26.447Z,62.20
2023-02-24T01:53:29.498Z,62.84
2023-02-24T01:56:32.533Z,63.04
2023-02-24T01:59:38.145Z,61.96
2023-02-24T02:02:44.283Z,61.16
2023-02-24T02:05:49.629Z,61.33
2023-02-24T02:08:52.365Z,62.55
2023-02-24T02:11:54.811Z,60.98
2023-02-24T02:15:00.394Z,60.24
2023-02-24T02:18:43.005Z,60.35
2023-02-24T02:22:05.715Z,61.61
2023-02-24T02:25:27.898Z,60.34
2023-02-24T02:29:05.377Z,61.25
2023-02-24T02:32:27.237Z,61.44
2023-02-24T02:35:37.491Z,60.85
2023-02-24T02:39:03.251Z,60.66
2023-02-24T02:42:31.458Z,60.06
2023-02-24T02:45:41.267Z,59.95
2023-02-24T02:48:48.086Z,60.57
2023-02-24T02:51:53.935Z,60.78
2023-02-24T02:55:18.696Z,59.30
2023-02-24T02:58:26.314Z,58.99
2023-02-24T03:01:32.558Z,59.11
2023-02-24T03:04:35.520Z,60.11
2023-02-24T03:07:42.919Z,58.56
2023-02-24T03:10:51.192Z,58.90
2023-02-24T03:13:56.573Z,58.91
2023-02-24T03:17:00.613Z,59.21
2023-02-24T03:20:16.877Z,59.10
2023-02-24T03:23:26.205Z,60.01
2023-02-24T03:26:31.092Z,59.45
2023-02-24T03:29:41.002Z,59.43
2023-02-24T03:32:56.136Z,59.69
2023-02-24T03:36:01.920Z,59.71
2023-02-24T03:39:11.420Z,61.01
2023-02-24T03:42:21.002Z,59.07
2023-02-24T03:45:24.081Z,58.73
2023-02-24T03:48:28.096Z,59.16
2023-02-24T03:51:31.780Z,60.43
2023-02-24T03:55:11.940Z,59.79
2023-02-24T03:58:26.914Z,60.08
2023-02-24T04:01:51.981Z,59.79
2023-02-24T04:05:09.957Z,60.18
2023-02-24T04:08:42.557Z,59.69
2023-02-24T04:11:48.497Z,59.84
2023-02-24T04:14:52.112Z,59.26
2023-02-24T04:17:58.158Z,59.96
2023-02-24T04:21:05.491Z,59.28
2023-02-24T04:24:12.144Z,59.01
2023-02-24T04:27:16.200Z,59.28
2023-02-24T04:30:20.464Z,59.75
2023-02-24T04:33:22.984Z,59.02
2023-02-24T04:36:26.487Z,59.63
2023-02-24T04:39:31.009Z,59.18
2023-02-24T04:42:35.320Z,59.52
2023-02-24T04:45:40.127Z,60.40
2023-02-24T04:48:42.446Z,59.48
2023-02-24T04:51:45.308Z,60.55
2023-02-24T04:54:48.173Z,59.43
2023-02-24T04:57:55.902Z,60.31
2023-02-24T05:00:58.359Z,60.97
2023-02-24T05:04:00.701Z,61.91
2023-02-24T05:07:03.290Z,60.22
2023-02-24T05:10:06.432Z,60.62
2023-02-24T05:13:09.310Z,60.44
2023-02-24T05:16:14.177Z,59.67
2023-02-24T05:19:37.928Z,59.37
2023-02-24T05:22:41.675Z,58.75
2023-02-24T05:25:44.486Z,58.69
2023-02-24T05:28:49.513Z,59.43
2023-02-24T05:31:54.417Z,59.54
2023-02-24T05:34:56.759Z,59.12
2023-02-24T05:37:59.337Z,58.26
2023-02-24T05:41:18.032Z,59.36
2023-02-24T05:44:23.879Z,59.06
2023-02-24T05:47:27.126Z,59.08
2023-02-24T05:50:29.447Z,58.46
2023-02-24T05:53:31.746Z,59.04
2023-02-24T05:56:36.741Z,58.92
2023-02-24T05:59:40.436Z,58.81
2023-02-24T06:02:50.300Z,59.13
2023-02-24T06:05:54.234Z,59.53
2023-02-24T06:08:57.948Z,58.70
2023-02-24T06:12:00.350Z,58.73
2023-02-24T06:15:07.645Z,59.04
2023-02-24T06:18:11.729Z,59.42
2023-02-24T06:21:14.550Z,58.37
2023-02-24T06:24:18.663Z,59.28
2023-02-24T06:27:21.874Z,58.63
2023-02-24T06:30:25.304Z,59.23
2023-02-24T06:33:27.666Z,58.02
2023-02-24T06:36:30.188Z,58.40
2023-02-24T06:39:34.936Z,58.52
2023-02-24T06:42:40.171Z,58.60
2023-02-24T06:45:44.018Z,59.26
2023-02-24T06:48:48.161Z,59.15
2023-02-24T06:51:50.927Z,59.75
2023-02-24T06:55:00.128Z,59.58
2023-02-24T06:58:05.544Z,60.17
2023-02-24T07:01:12.086Z,59.97
2023-02-24T07:04:15.979Z,60.36
2023-02-24T07:07:19.899Z,60.72
2023-02-24T07:10:22.181Z,61.20
2023-02-24T07:13:28.978Z,61.29
2023-02-24T07:16:32.176Z,58.88
2023-02-24T07:19:34.504Z,57.78
2023-02-24T07:22:37.687Z,58.42
2023-02-24T07:25:41.546Z,59.99
2023-02-24T07:28:45.112Z,60.24
2023-02-24T07:31:48.987Z,60.41
2023-02-24T07:34:51.488Z,60.49
2023-02-24T07:37:55.803Z,59.73
2023-02-24T07:40:59.258Z,57.78
2023-02-24T07:44:03.520Z,56.36
2023-02-24T07:47:08.458Z,56.54
2023-02-24T07:50:14.597Z,58.01
2023-02-24T07:53:19.171Z,57.95
2023-02-24T07:56:28.992Z,57.88
2023-02-24T07:59:34.587Z,58.26
2023-02-24T08:02:36.898Z,57.83
2023-02-24T08:05:39.252Z,57.69
2023-02-24T08:09:11.204Z,58.20
2023-02-24T08:12:21.755Z,58.74
2023-02-24T08:15:26.582Z,58.77
2023-02-24T08:18:32.210Z,59.28
2023-02-24T08:21:41.294Z,59.96
2023-02-24T08:24:45.529Z,59.49
2023-02-24T08:28:12.112Z,58.63
2023-02-24T08:31:15.138Z,58.48
2023-02-24T08:34:17.509Z,57.17
2023-02-24T08:37:20.131Z,55.81
2023-02-24T08:40:31.620Z,55.35
2023-02-24T08:43:39.288Z,52.98
2023-02-24T08:46:43.716Z,51.97
2023-02-24T08:49:47.043Z,50.79
2023-02-24T08:52:49.424Z,50.04
2023-02-24T08:55:52.135Z,49.02
2023-02-24T08:58:57.339Z,48.33
2023-02-24T09:02:18.659Z,48.58
2023-02-24T09:05:24.432Z,48.39
2023-02-24T09:08:32.988Z,48.64
2023-02-24T09:11:35.280Z,49.22
2023-02-24T09:14:39.079Z,48.08
2023-02-24T09:17:45.843Z,48.09
2023-02-24T09:20:58.100Z,47.46
2023-02-24T09:24:03.528Z,48.02
2023-02-24T09:27:06.601Z,48.06
2023-02-24T09:30:25.830Z,47.94
2023-02-24T09:33:39.079Z,48.91
2023-02-24T09:37:01.597Z,49.05
2023-02-24T09:40:13.456Z,49.15
2023-02-24T09:43:24.658Z,47.29
2023-02-24T09:46:27.649Z,46.72
2023-02-24T09:49:46.874Z,47.03
2023-02-24T09:52:57.596Z,46.78
2023-02-24T09:56:08.003Z,46.24
2023-02-24T09:59:28.144Z,45.94
2023-02-24T10:03:00.419Z,46.35
2023-02-24T10:06:12.377Z,47.08
2023-02-24T10:09:24.647Z,43.60
2023-02-24T10:12:40.308Z,43.99
2023-02-24T10:16:06.116Z,42.94
2023-02-24T10:19:29.400Z,42.67
2023-02-24T10:22:50.822Z,44.46
2023-02-24T10:26:06.666Z,45.18
2023-02-24T10:29:22.710Z,47.00
2023-02-24T10:32:59.233Z,46.13
2023-02-24T10:36:17.356Z,46.67
2023-02-24T10:39:26.042Z,46.42
2023-02-24T10:42:34.429Z,46.77
2023-02-24T10:45:49.035Z,48.78
2023-02-24T10:49:04.149Z,48.97
2023-02-24T10:52:09.518Z,48.76
2023-02-24T10:55:29.146Z,47.26
2023-02-24T10:58:56.295Z,46.29
2023-02-24T11:02:25.104Z,47.49
2023-02-24T11:05:38.556Z,47.59
2023-02-24T11:08:46.752Z,47.21
2023-02-24T11:12:07.699Z,45.59
2023-02-24T11:15:50.083Z,45.32
2023-02-24T11:18:54.709Z,43.98
2023-02-24T11:21:57.302Z,44.25
2023-02-24T11:25:24.795Z,44.53
2023-02-24T11:28:51.063Z,44.02
2023-02-24T11:32:15.505Z,44.03
2023-02-24T11:35:31.787Z,43.36
2023-02-24T11:39:08.383Z,44.09
2023-02-24T11:42:34.027Z,44.18
2023-02-24T11:45:53.511Z,44.64
2023-02-24T11:48:58.374Z,43.46
2023-02-24T11:52:04.815Z,45.09
2023-02-24T11:55:17.100Z,44.63
2023-02-24T11:58:29.968Z,44.60
2023-02-24T12:01:59.448Z,44.82
2023-02-24T12:05:11.838Z,45.21
2023-02-24T12:08:30.556Z,45.78
2023-02-24T12:11:52.778Z,45.06
2023-02-24T12:14:58.360Z,43.95
2023-02-24T12:18:15.338Z,43.37
2023-02-24T12:21:25.423Z,44.45
2023-02-24T12:24:29.300Z,44.28
2023-02-24T12:27:46.659Z,44.42
2023-02-24T12:30:57.740Z,43.65
2023-02-24T12:34:27.741Z,43.37
2023-02-24T12:37:56.324Z,44.02
2023-02-24T12:41:19.838Z,43.65
2023-02-24T12:44:27.358Z,43.15
2023-02-24T12:47:51.316Z,43.56
2023-02-24T12:51:34.420Z,43.79
2023-02-24T12:54:49.679Z,44.05
2023-02-24T12:58:08.528Z,44.06
2023-02-24T13:01:23.463Z,45.45
2023-02-24T13:04:51.444Z,45.34
2023-02-24T13:07:56.647Z,45.66
2023-02-24T13:11:01.967Z,45.79
2023-02-24T13:14:14.516Z,46.74
2023-02-24T13:17:23.336Z,46.55
2023-02-24T13:20:38.071Z,46.54
2023-02-24T13:23:42.456Z,46.27
2023-02-24T13:26:46.036Z,46.05
2023-02-24T13:29:57.485Z,46.26
2023-02-24T13:33:09.699Z,46.73
2023-02-24T13:36:24.837Z,46.96
2023-02-24T13:39:38.817Z,47.96
2023-02-24T13:42:41.116Z,47.78
2023-02-24T13:45:55.004Z,48.35
2023-02-24T13:49:19.539Z,47.91
2023-02-24T13:52:36.419Z,48.12
2023-02-24T13:55:55.846Z,48.11
2023-02-24T13:59:27.299Z,48.79
2023-02-24T14:02:31.266Z,48.59
2023-02-24T14:05:35.980Z,48.42
2023-02-24T14:08:48.025Z,47.08
2023-02-24T14:12:19.754Z,46.86
2023-02-24T14:15:28.701Z,46.17
2023-02-24T14:18:31.289Z,46.38
2023-02-24T14:21:33.979Z,46.20
2023-02-24T14:24:37.072Z,45.95
2023-02-24T14:27:39.853Z,46.00
2023-02-24T14:30:42.674Z,46.39
2023-02-24T14:33:45.897Z,46.32
2023-02-24T14:36:51.236Z,45.44
2023-02-24T14:39:56.022Z,45.52
2023-02-24T14:42:58.346Z,44.59
2023-02-24T14:46:05.668Z,43.45
2023-02-24T14:49:18.777Z,43.18
2023-02-24T14:52:48.466Z,43.97
2023-02-24T14:55:52.361Z,43.96
2023-02-24T14:59:17.528Z,44.26
2023-02-24T15:02:24.754Z,44.45
2023-02-24T15:05:30.218Z,45.89
2023-02-24T15:08:46.954Z,45.85
2023-02-24T15:11:50.173Z,46.24
2023-02-24T15:14:56.383Z,45.78
2023-02-24T15:18:04.439Z,45.70
2023-02-24T15:21:08.121Z,45.55
2023-02-24T15:24:19.757Z,46.42
2023-02-24T15:27:36.021Z,46.44
2023-02-24T15:30:55.383Z,45.85
2023-02-24T15:34:01.307Z,45.85
2023-02-24T15:37:14.063Z,46.69
2023-02-24T15:40:21.808Z,46.74
2023-02-24T15:43:48.256Z,46.98
2023-02-24T15:46:53.388Z,47.22
2023-02-24T15:49:55.895Z,47.41
2023-02-24T15:53:00.329Z,47.35
2023-02-24T15:56:02.900Z,48.00
2023-02-24T15:59:06.238Z,48.60
2023-02-24T16:02:17.414Z,47.96
2023-02-24T16:05:19.761Z,48.43
2023-02-24T16:08:22.921Z,48.62
2023-02-24T16:11:29.393Z,48.91
2023-02-24T16:14:32.714Z,49.45
2023-02-24T16:17:40.292Z,49.12
2023-02-24T16:20:42.683Z,49.01
2023-02-24T16:23:45.259Z,49.74
2023-02-24T16:26:47.827Z,49.69
2023-02-24T16:29:51.397Z,49.99
2023-02-24T16:32:53.944Z,50.40
2023-02-24T16:35:56.630Z,50.49
2023-02-24T16:39:00.894Z,50.80
2023-02-24T16:42:07.416Z,50.71
2023-02-24T16:45:11.018Z,50.73
2023-02-24T16:48:19.808Z,50.90
2023-02-24T16:51:22.209Z,50.99
2023-02-24T16:54:29.239Z,51.02
2023-02-24T16:57:32.422Z,51.18
2023-02-24T17:00:34.775Z,51.32
2023-02-24T17:03:45.356Z,51.32
2023-02-24T17:06:48.233Z,50.93
2023-02-24T17:09:50.687Z,50.78
2023-02-24T17:12:53.207Z,50.72
2023-02-24T17:15:57.363Z,50.58
2023-02-24T17:18:59.824Z,50.77
2023-02-24T17:22:03.475Z,51.08
2023-02-24T17:25:09.258Z,51.07
2023-02-24T17:28:14.188Z,50.84
2023-02-24T17:31:16.984Z,50.84
2023-02-24T17:34:21.571Z,50.98
2023-02-24T17:37:24.029Z,50.72
2023-02-24T17:40:26.541Z,51.15
2023-02-24T17:43:29.177Z,50.88
2023-02-24T17:46:31.527Z,51.26
2023-02-24T17:49:34.136Z,51.33
2023-02-24T17:52:37.197Z,51.36
2023-02-24T17:55:55.922Z,51.34
2023-02-24T17:59:03.421Z,51.57
2023-02-24T18:02:06.301Z,51.26
2023-02-24T18:05:08.906Z,51.82
2023-02-24T18:08:12.985Z,51.61
2023-02-24T18:11:18.264Z,51.80
2023-02-24T18:14:21.112Z,52.05
2023-02-24T18:17:24.258Z,52.17
2023-02-24T18:20:26.574Z,52.35
2023-02-24T18:23:29.364Z,52.22
2023-02-24T18:26:32.169Z,52.11
2023-02-24T18:29:34.502Z,52.17
2023-02-24T18:32:43.305Z,52.66
2023-02-24T18:35:45.818Z,52.58
2023-02-24T18:38:48.205Z,52.75
2023-02-24T18:41:50.499Z,53.19
2023-02-24T18:44:52.869Z,52.80
2023-02-24T18:47:55.233Z,53.03
2023-02-24T18:50:58.329Z,53.06
2023-02-24T18:54:01.244Z,53.13
2023-02-24T18:57:03.581Z,53.01
2023-02-24T19:00:06.346Z,53.17
2023-02-24T19:03:08.702Z,53.44
2023-02-24T19:06:12.174Z,53.72
2023-02-24T19:09:15.570Z,53.44
2023-02-24T19:12:19.328Z,54.24
2023-02-24T19:15:22.616Z,53.97
2023-02-24T19:18:24.983Z,53.48
2023-02-24T19:21:28.936Z,53.81
2023-02-24T19:24:31.255Z,54.26
2023-02-24T19:27:33.677Z,54.20
2023-02-24T19:30:38.817Z,54.25
2023-02-24T19:33:41.419Z,54.31
2023-02-24T19:36:43.680Z,54.37
2023-02-24T19:39:46.002Z,54.16
2023-02-24T19:42:51.168Z,54.51
2023-02-24T19:45:53.853Z,54.50
2023-02-24T19:48:56.767Z,54.64
2023-02-24T19:52:00.043Z,54.96
2023-02-24T19:55:02.428Z,54.94
2023-02-24T19:58:04.929Z,55.11
2023-02-24T20:01:12.692Z,55.35
2023-02-24T20:04:15.128Z,55.31
2023-02-24T20:07:17.523Z,55.47
2023-02-24T20:10:19.844Z,55.37
2023-02-24T20:13:22.998Z,55.93
2023-02-24T20:16:26.998Z,55.99
2023-02-24T20:19:30.015Z,56.41
2023-02-24T20:22:32.417Z,56.18
2023-02-24T20:25:34.819Z,56.08
2023-02-24T20:28:37.182Z,56.11
2023-02-24T20:31:40.673Z,55.86
2023-02-24T20:34:43.528Z,56.09
2023-02-24T20:37:45.912Z,55.75
2023-02-24T20:40:59.360Z,55.91
2023-02-24T20:44:02.875Z,56.08
2023-02-24T20:47:05.139Z,56.92
2023-02-24T20:50:07.662Z,56.99
2023-02-24T20:53:11.278Z,57.41
2023-02-24T20:56:21.879Z,57.35
2023-02-24T20:59:24.395Z,58.11
2023-02-24T21:02:26.706Z,58.44
2023-02-24T21:05:29.123Z,59.44
2023-02-24T21:08:31.605Z,59.25
2023-02-24T21:11:34.544Z,59.70
2023-02-24T21:14:36.849Z,60.12
2023-02-24T21:17:39.758Z,60.51
2023-02-24T21:20:42.068Z,60.93
2023-02-24T21:23:44.539Z,61.30
2023-02-24T21:26:47.580Z,61.66
2023-02-24T21:29:49.952Z,61.80
2023-02-24T21:32:52.359Z,61.96
2023-02-24T21:36:23.496Z,61.54
2023-02-24T21:39:26.383Z,61.79
2023-02-24T21:42:28.743Z,62.52
2023-02-24T21:45:33.190Z,61.94
2023-02-24T21:48:35.989Z,62.89
2023-02-24T21:51:38.310Z,62.66
2023-02-24T21:54:42.356Z,62.88
2023-02-24T21:57:45.161Z,62.83
2023-02-24T22:00:47.509Z,63.14
2023-02-24T22:03:50.034Z,63.25
2023-02-24T22:06:52.412Z,63.52
2023-02-24T22:09:54.725Z,63.46
2023-02-24T22:12:57.097Z,63.86
2023-02-24T22:16:02.192Z,63.62
2023-02-24T22:19:05.462Z,63.19
2023-02-24T22:22:09.082Z,63.61
2023-02-24T22:25:11.551Z,63.73
2023-02-24T22:28:14.038Z,64.28
2023-02-24T22:31:19.693Z,64.55
2023-02-24T22:34:22.705Z,64.32
2023-02-24T22:37:25.074Z,64.08
2023-02-24T22:40:27.979Z,63.85
2023-02-24T22:43:30.917Z,63.94
2023-02-24T22:46:36.119Z,64.00
2023-02-24T22:49:38.491Z,64.16
2023-02-24T22:52:40.897Z,64.12
2023-02-24T22:55:47.148Z,64.48
2023-02-24T22:58:49.946Z,64.15
2023-02-24T23:01:52.247Z,64.28
2023-02-24T23:04:55.125Z,64.44
2023-02-24T23:07:57.983Z,64.75
2023-02-24T23:11:33.794Z,64.95
2023-02-24T23:14:36.330Z,65.22
2023-02-24T23:17:38.669Z,64.92
2023-02-24T23:20:41.359Z,64.58
2023-02-24T23:23:44.560Z,64.98
2023-02-24T23:26:54.714Z,66.03
2023-02-24T23:29:58.272Z,66.40
2023-02-24T23:33:01.162Z,66.31
2023-02-24T23:36:09.932Z,65.95
2023-02-24T23:39:13.968Z,66.37
2023-02-24T23:42:18.231Z,66.67
2023-02-24T23:45:20.589Z,66.91
2023-02-24T23:48:23.776Z,67.26
2023-02-24T23:51:27.982Z,66.73
2023-02-24T23:54:33.940Z,66.47
2023-02-24T23:57:36.274Z,66.16
